createdAt,value
2018-02-23T00:03:28.047Z,76.45
2018-02-23T00:05:57.168Z,76.66
2018-02-23T00:08:25.612Z,76.84
2018-02-23T00:10:54.003Z,77.22
2018-02-23T00:13:22.377Z,77.32
2018-02-23T00:15:50.717Z,77.39
2018-02-23T00:18:19.081Z,77.40
2018-02-23T00:20:47.685Z,77.77
2018-02-23T00:23:16.055Z,77.88
2018-02-23T00:25:44.409Z,78.10
2018-02-23T00:28:12.773Z,78.09
2018-02-23T00:30:41.143Z,78.40
2018-02-23T00:33:09.528Z,78.31
2018-02-23T00:35:37.866Z,78.17
2018-02-23T00:38:06.993Z,78.15
2018-02-23T00:40:35.376Z,78.56
2018-02-23T00:43:03.723Z,78.58
2018-02-23T00:45:33.195Z,78.75
2018-02-23T00:48:01.548Z,78.43
2018-02-23T00:50:30.695Z,78.51
2018-02-23T00:52:59.877Z,78.65
2018-02-23T00:55:28.259Z,78.81
2018-02-23T00:57:56.617Z,78.76
2018-02-23T01:00:32.280Z,78.66
2018-02-23T01:03:00.612Z,78.38
2018-02-23T01:05:29.023Z,78.21
2018-02-23T01:07:57.399Z,78.37
2018-02-23T01:10:25.736Z,78.76
2018-02-23T01:12:54.113Z,78.27
2018-02-23T01:15:22.493Z,78.42
2018-02-23T01:17:50.872Z,78.48
2018-02-23T01:20:19.228Z,78.61
2018-02-23T01:22:47.997Z,78.35
2018-02-23T01:25:16.375Z,78.44
2018-02-23T01:27:44.713Z,78.77
2018-02-23T01:30:13.081Z,78.85
2018-02-23T01:32:41.419Z,79.09
2018-02-23T01:35:11.139Z,79.15
2018-02-23T01:37:40.251Z,79.26
2018-02-23T01:40:08.614Z,79.30
2018-02-23T01:42:37.369Z,79.42
2018-02-23T01:45:05.701Z,79.70
2018-02-23T01:47:34.076Z,79.53
2018-02-23T01:50:02.429Z,79.67
2018-02-23T01:52:30.840Z,79.72
2018-02-23T01:54:59.977Z,79.76
2018-02-23T01:57:28.324Z,79.84
2018-02-23T01:59:57.621Z,79.95
2018-02-23T02:02:25.962Z,79.88
2018-02-23T02:04:54.333Z,80.11
2018-02-23T02:07:23.477Z,80.15
2018-02-23T02:09:51.780Z,80.18
2018-02-23T02:12:20.182Z,80.28
2018-02-23T02:14:49.288Z,80.25
2018-02-23T02:17:18.400Z,80.39
2018-02-23T02:19:46.872Z,80.48
2018-02-23T02:22:15.209Z,80.33
2018-02-23T02:24:43.624Z,80.32
2018-02-23T02:27:11.922Z,80.42
2018-02-23T02:29:40.296Z,80.30
2018-02-23T02:32:08.675Z,80.15
2018-02-23T02:34:37.021Z,80.15
2018-02-23T02:37:06.157Z,80.21
2018-02-23T02:39:34.504Z,80.03
2018-02-23T02:42:02.859Z,79.79
2018-02-23T02:44:31.189Z,79.82
2018-02-23T02:46:59.560Z,79.84
2018-02-23T02:49:27.913Z,79.85
2018-02-23T02:51:56.289Z,79.84
2018-02-23T02:54:24.628Z,79.78
2018-02-23T02:56:52.999Z,80.03
2018-02-23T02:59:25.457Z,79.87
2018-02-23T03:01:53.838Z,79.96
2018-02-23T03:04:22.217Z,80.01
2018-02-23T03:06:50.606Z,80.09
2018-02-23T03:09:18.972Z,80.06
2018-02-23T03:11:47.320Z,80.02
2018-02-23T03:14:15.700Z,80.07
2018-02-23T03:16:44.079Z,80.13
2018-02-23T03:19:13.207Z,80.08
2018-02-23T03:21:41.538Z,79.98
2018-02-23T03:24:10.708Z,79.91
2018-02-23T03:26:39.039Z,79.89
2018-02-23T03:29:07.377Z,80.04
2018-02-23T03:31:36.521Z,79.99
2018-02-23T03:34:04.910Z,79.99
2018-02-23T03:36:34.070Z,79.99
2018-02-23T03:39:02.472Z,80.10
2018-02-23T03:41:30.832Z,80.16
2018-02-23T03:43:59.199Z,80.33
2018-02-23T03:46:28.380Z,80.32
2018-02-23T03:48:57.704Z,80.40
2018-02-23T03:51:26.108Z,80.24
2018-02-23T03:53:54.464Z,80.37
2018-02-23T03:56:22.936Z,80.48
2018-02-23T03:58:51.481Z,80.50
2018-02-23T04:01:19.823Z,80.92
2018-02-23T04:03:48.264Z,80.80
2018-02-23T04:06:17.893Z,81.02
2018-02-23T04:08:46.326Z,81.07
2018-02-23T04:11:14.704Z,81.19
2018-02-23T04:13:43.230Z,81.41
2018-02-23T04:16:11.537Z,81.49
2018-02-23T04:18:39.885Z,81.25
2018-02-23T04:21:08.251Z,81.27
2018-02-23T04:23:37.371Z,81.38
2018-02-23T04:26:05.713Z,81.55
2018-02-23T04:28:34.886Z,81.76
2018-02-23T04:31:03.195Z,81.93
2018-02-23T04:33:32.327Z,81.75
2018-02-23T04:36:00.652Z,82.13
2018-02-23T04:38:29.027Z,81.63
2018-02-23T04:40:57.359Z,81.70
2018-02-23T04:43:25.752Z,81.76
2018-02-23T04:45:54.112Z,81.69
2018-02-23T04:48:22.455Z,81.79
2018-02-23T04:50:51.599Z,81.82
2018-02-23T04:53:19.908Z,81.79
2018-02-23T04:55:49.017Z,81.85
2018-02-23T04:58:18.156Z,81.82
2018-02-23T05:00:46.547Z,81.69
2018-02-23T05:03:14.912Z,81.73
2018-02-23T05:05:43.283Z,81.86
2018-02-23T05:08:11.604Z,81.96
2018-02-23T05:10:39.965Z,82.01
2018-02-23T05:13:08.318Z,82.11
2018-02-23T05:15:36.653Z,82.27
2018-02-23T05:18:06.539Z,82.28
2018-02-23T05:20:34.887Z,82.45
2018-02-23T05:23:03.228Z,82.31
2018-02-23T05:25:32.579Z,82.41
2018-02-23T05:28:00.913Z,82.53
2018-02-23T05:30:30.067Z,82.80
2018-02-23T05:32:58.384Z,82.85
2018-02-23T05:35:27.500Z,82.87
2018-02-23T05:37:56.737Z,82.71
2018-02-23T05:40:25.095Z,82.91
2018-02-23T05:42:53.570Z,83.00
2018-02-23T05:45:22.302Z,83.00
2018-02-23T05:47:50.667Z,82.86
2018-02-23T05:50:18.992Z,83.04
2018-02-23T05:52:47.468Z,82.99
2018-02-23T05:55:15.799Z,82.97
2018-02-23T05:57:44.138Z,83.25
2018-02-23T06:00:12.882Z,83.09
2018-02-23T06:02:41.207Z,83.16
2018-02-23T06:05:09.553Z,83.34
2018-02-23T06:07:38.261Z,83.21
2018-02-23T06:10:06.618Z,83.13
2018-02-23T06:12:35.721Z,83.21
2018-02-23T06:15:04.061Z,83.34
2018-02-23T06:17:37.976Z,83.41
2018-02-23T06:20:09.131Z,83.39
2018-02-23T06:22:38.248Z,83.27
2018-02-23T06:25:06.604Z,83.23
2018-02-23T06:27:34.942Z,83.26
2018-02-23T06:30:03.338Z,83.32
2018-02-23T06:32:31.707Z,83.25
2018-02-23T06:35:00.053Z,83.04
2018-02-23T06:37:28.381Z,83.17
2018-02-23T06:39:57.102Z,83.05
2018-02-23T06:42:25.477Z,82.95
2018-02-23T06:44:53.800Z,82.82
2018-02-23T06:47:22.936Z,82.81
2018-02-23T06:49:52.039Z,82.68
2018-02-23T06:52:20.403Z,82.58
2018-02-23T06:54:49.506Z,82.46
2018-02-23T06:57:18.626Z,81.60
2018-02-23T06:59:47.007Z,81.01
2018-02-23T07:02:15.362Z,80.79
2018-02-23T07:04:43.721Z,80.27
2018-02-23T07:07:12.056Z,79.79
2018-02-23T07:09:40.423Z,79.80
2018-02-23T07:12:08.767Z,79.41
2018-02-23T07:14:37.902Z,78.82
2018-02-23T07:17:06.266Z,78.52
2018-02-23T07:19:34.670Z,78.26
2018-02-23T07:22:03.011Z,78.22
2018-02-23T07:24:31.373Z,78.17
2018-02-23T07:27:00.480Z,77.79
2018-02-23T07:29:29.612Z,77.07
2018-02-23T07:31:57.925Z,76.53
2018-02-23T07:34:26.253Z,75.70
2018-02-23T07:36:54.628Z,75.50
2018-02-23T07:39:24.302Z,75.80
2018-02-23T07:41:52.728Z,75.92
2018-02-23T07:44:21.307Z,75.94
2018-02-23T07:46:50.447Z,75.64
2018-02-23T07:49:20.931Z,75.72
2018-02-23T07:51:49.440Z,75.38
2018-02-23T07:54:17.929Z,75.32
2018-02-23T07:56:47.098Z,75.33
2018-02-23T07:59:15.480Z,75.20
2018-02-23T08:01:43.792Z,74.62
2018-02-23T08:04:12.167Z,73.67
2018-02-23T08:06:41.659Z,73.43
2018-02-23T08:09:10.012Z,72.88
2018-02-23T08:11:38.372Z,72.18
2018-02-23T08:14:06.798Z,72.03
2018-02-23T08:16:35.150Z,72.09
2018-02-23T08:19:03.922Z,71.82
2018-02-23T08:21:32.258Z,71.38
2018-02-23T08:24:01.404Z,71.14
2018-02-23T08:26:35.473Z,70.93
2018-02-23T08:29:28.015Z,70.20
2018-02-23T08:31:57.162Z,68.89
2018-02-23T08:34:25.489Z,68.46
2018-02-23T08:36:54.606Z,68.27
2018-02-23T08:39:22.978Z,67.47
2018-02-23T08:41:51.300Z,67.89
2018-02-23T08:44:19.722Z,67.99
2018-02-23T08:46:48.841Z,67.40
2018-02-23T08:49:17.177Z,66.15
2018-02-23T08:51:45.525Z,66.22
2018-02-23T08:54:15.189Z,65.94
2018-02-23T08:56:44.333Z,65.54
2018-02-23T08:59:13.437Z,64.54
2018-02-23T09:01:41.795Z,64.64
2018-02-23T09:04:10.159Z,64.11
2018-02-23T09:06:38.530Z,63.06
2018-02-23T09:09:06.863Z,62.76
2018-02-23T09:11:35.225Z,62.48
2018-02-23T09:14:03.545Z,62.41
2018-02-23T09:16:32.665Z,61.84
2018-02-23T09:19:01.013Z,61.11
2018-02-23T12:10:08.782Z,51.39
2018-02-23T12:12:37.169Z,51.36
2018-02-23T12:15:05.583Z,51.11
2018-02-23T12:17:33.913Z,51.35
2018-02-23T12:20:02.301Z,51.59
2018-02-23T12:22:31.481Z,51.58
2018-02-23T12:24:59.948Z,51.16
2018-02-23T12:27:28.315Z,50.09
2018-02-23T12:29:57.482Z,49.59
2018-02-23T12:32:25.885Z,49.02
2018-02-23T12:34:54.210Z,48.46
2018-02-23T12:37:22.554Z,47.79
2018-02-23T12:39:51.693Z,49.06
2018-02-23T12:42:20.057Z,47.88
2018-02-23T12:44:48.451Z,47.31
2018-02-23T12:47:16.823Z,48.26
2018-02-23T12:49:45.243Z,48.59
2018-02-23T12:52:13.583Z,48.48
2018-02-23T12:54:41.949Z,48.71
2018-02-23T12:57:10.315Z,48.33
2018-02-23T12:59:38.695Z,47.95
2018-02-23T13:02:07.040Z,47.07
2018-02-23T13:04:36.163Z,45.81
2018-02-23T13:07:05.262Z,45.05
2018-02-23T13:09:33.651Z,44.30
2018-02-23T13:12:02.015Z,44.09
2018-02-23T13:14:35.774Z,44.13
2018-02-23T13:17:05.155Z,43.79
2018-02-23T13:19:34.206Z,43.73
2018-02-23T13:22:02.542Z,44.76
2018-02-23T13:24:30.883Z,44.51
2018-02-23T13:27:04.772Z,43.72
2018-02-23T13:29:33.117Z,44.33
2018-02-23T13:32:01.495Z,44.17
2018-02-23T13:34:29.826Z,43.99
2018-02-23T13:36:58.214Z,43.65
2018-02-23T13:39:26.552Z,43.95
2018-02-23T13:41:55.675Z,44.37
2018-02-23T13:44:24.010Z,44.45
2018-02-23T13:46:53.566Z,44.02
2018-02-23T13:49:21.901Z,43.43
2018-02-23T13:51:51.027Z,43.70
2018-02-23T13:54:24.350Z,44.11
2018-02-23T13:56:52.697Z,44.10
2018-02-23T13:59:21.056Z,44.16
2018-02-23T14:01:50.181Z,42.94
2018-02-23T14:04:20.049Z,42.81
2018-02-23T14:06:49.518Z,43.02
2018-02-23T14:09:17.999Z,42.71
2018-02-23T14:11:46.334Z,41.53
2018-02-23T14:14:14.659Z,41.83
2018-02-23T14:16:43.023Z,42.68
2018-02-23T14:19:12.125Z,43.15
2018-02-23T14:21:41.240Z,43.46
2018-02-23T14:24:09.597Z,43.73
2018-02-23T14:26:37.930Z,43.01
2018-02-23T14:29:06.314Z,42.67
2018-02-23T14:31:34.695Z,42.33
2018-02-23T14:34:03.036Z,42.92
2018-02-23T14:36:31.388Z,42.49
2018-02-23T14:38:59.751Z,42.83
2018-02-23T14:41:28.837Z,43.30
2018-02-23T14:43:57.207Z,42.69
2018-02-23T14:46:25.555Z,43.03
2018-02-23T14:49:20.834Z,43.33
2018-02-23T14:51:49.179Z,43.31
2018-02-23T14:54:17.536Z,43.37
2018-02-23T14:56:45.903Z,43.47
2018-02-23T14:59:15.011Z,43.56
2018-02-23T15:01:43.342Z,44.28
2018-02-23T15:04:11.711Z,44.31
2018-02-23T15:06:40.035Z,44.30
2018-02-23T15:09:10.014Z,43.78
2018-02-23T15:11:38.358Z,43.53
2018-02-23T15:14:06.731Z,43.54
2018-02-23T15:16:35.064Z,44.05
2018-02-23T15:19:03.394Z,43.82
2018-02-23T15:21:31.762Z,44.07
2018-02-23T15:24:00.107Z,43.96
2018-02-23T15:26:29.239Z,44.39
2018-02-23T15:28:57.607Z,44.52
2018-02-23T15:31:43.606Z,45.18
2018-02-23T15:34:11.925Z,45.51
2018-02-23T15:36:40.302Z,45.84
2018-02-23T15:39:08.641Z,45.82
2018-02-23T15:41:37.091Z,45.77
2018-02-23T15:44:05.415Z,45.86
2018-02-23T15:46:33.828Z,46.03
2018-02-23T15:49:08.405Z,46.30
2018-02-23T15:54:43.470Z,46.55
2018-02-23T15:57:26.710Z,46.88
2018-02-23T15:59:55.032Z,46.96
2018-02-23T16:02:23.407Z,47.01
2018-02-23T16:04:52.874Z,47.26
2018-02-23T16:07:22.578Z,47.43
2018-02-23T16:09:50.933Z,47.60
2018-02-23T16:12:19.494Z,47.82
2018-02-23T16:14:47.856Z,48.34
2018-02-23T16:17:17.771Z,48.45
2018-02-23T16:19:47.755Z,48.42
2018-02-23T16:22:16.083Z,48.11
2018-02-23T16:24:44.428Z,48.46
2018-02-23T16:27:13.556Z,48.99
2018-02-23T16:29:41.898Z,49.12
2018-02-23T16:32:10.249Z,49.33
2018-02-23T16:34:39.882Z,49.68
2018-02-23T16:37:08.327Z,49.81
2018-02-23T16:39:36.686Z,50.22
2018-02-23T16:42:05.033Z,50.39
2018-02-23T16:44:35.026Z,50.62
2018-02-23T16:47:03.686Z,50.64
2018-02-23T16:49:32.187Z,50.94
2018-02-23T16:52:00.595Z,51.18
2018-02-23T16:54:29.723Z,51.26
2018-02-23T16:56:58.088Z,51.42
2018-02-23T16:59:26.450Z,51.66
2018-02-23T17:01:55.250Z,52.14
2018-02-23T17:04:23.637Z,52.70
2018-02-23T17:06:52.382Z,52.35
2018-02-23T17:09:21.862Z,52.26
2018-02-23T17:11:50.221Z,52.46
2018-02-23T17:14:18.604Z,52.62
2018-02-23T17:16:46.945Z,53.35
2018-02-23T17:19:15.278Z,52.75
2018-02-23T17:21:44.886Z,52.80
2018-02-23T17:24:13.278Z,52.88
2018-02-23T17:26:41.736Z,53.30
2018-02-23T17:29:10.237Z,53.05
2018-02-23T17:31:38.639Z,53.19
2018-02-23T17:34:07.114Z,53.30
2018-02-23T17:36:36.664Z,53.69
2018-02-23T17:39:11.601Z,54.08
2018-02-23T17:41:40.003Z,54.11
2018-02-23T17:44:08.557Z,53.83
2018-02-23T17:46:36.978Z,53.59
2018-02-23T17:49:06.490Z,54.18
2018-02-23T17:51:36.393Z,54.87
2018-02-23T17:54:06.235Z,54.94
2018-02-23T17:56:35.365Z,54.57
2018-02-23T17:59:05.208Z,54.51
2018-02-23T18:01:33.697Z,54.90
2018-02-23T18:04:02.923Z,55.05
2018-02-23T18:06:31.386Z,55.46
2018-02-23T18:09:00.561Z,55.69
2018-02-23T18:11:30.584Z,56.11
2018-02-23T18:13:59.245Z,56.41
2018-02-23T18:16:27.631Z,56.13
2018-02-23T18:18:56.351Z,56.51
2018-02-23T18:21:24.872Z,56.88
2018-02-23T18:23:53.232Z,57.39
2018-02-23T18:26:21.992Z,57.44
2018-02-23T18:28:50.445Z,57.22
2018-02-23T18:31:18.917Z,57.28
2018-02-23T18:33:47.726Z,56.91
2018-02-23T18:36:16.100Z,57.00
2018-02-23T18:38:44.471Z,57.40
2018-02-23T18:41:12.851Z,57.75
2018-02-23T18:43:41.204Z,58.14
2018-02-23T18:46:10.443Z,58.63
2018-02-23T18:48:39.610Z,58.69
2018-02-23T18:51:07.982Z,59.03
2018-02-23T18:53:36.372Z,59.11
2018-02-23T18:56:04.722Z,59.12
2018-02-23T18:58:35.560Z,59.13
2018-02-23T19:01:04.597Z,59.55
2018-02-23T19:03:33.850Z,59.60
2018-02-23T19:06:02.271Z,59.81
2018-02-23T19:08:30.617Z,59.51
2018-02-23T19:10:59.722Z,58.70
2018-02-23T19:13:28.102Z,57.89
2018-02-23T19:15:57.848Z,57.74
2018-02-23T19:18:26.960Z,57.99
2018-02-23T19:20:56.099Z,58.02
2018-02-23T19:23:24.442Z,58.26
2018-02-23T19:25:53.613Z,58.46
2018-02-23T19:28:21.954Z,58.39
2018-02-23T19:30:51.567Z,58.72
2018-02-23T19:33:20.029Z,58.62
2018-02-23T19:35:49.151Z,59.13
2018-02-23T19:38:17.486Z,59.05
2018-02-23T19:40:47.368Z,58.73
2018-02-23T19:43:17.232Z,58.80
2018-02-23T19:45:45.623Z,59.70
2018-02-23T19:48:14.021Z,60.15
2018-02-23T19:50:43.120Z,60.04
2018-02-23T19:53:11.460Z,60.05
2018-02-23T19:55:39.852Z,60.39
2018-02-23T19:58:08.216Z,60.69
2018-02-23T20:00:36.562Z,60.93
2018-02-23T20:03:04.952Z,60.32
2018-02-23T20:05:33.313Z,60.26
2018-02-23T20:08:02.464Z,60.92
2018-02-23T20:10:30.827Z,61.22
2018-02-23T20:12:59.176Z,61.89
2018-02-23T20:15:27.523Z,61.93
2018-02-23T20:17:55.876Z,62.07
2018-02-23T20:20:24.364Z,62.24
2018-02-23T20:22:53.521Z,62.54
2018-02-23T20:25:21.830Z,62.74
2018-02-23T20:27:50.199Z,62.75
2018-02-23T20:30:18.582Z,63.03
2018-02-23T20:32:46.965Z,62.96
2018-02-23T20:35:15.336Z,62.78
2018-02-23T20:37:45.422Z,62.86
2018-02-23T20:40:13.794Z,63.27
2018-02-23T20:42:42.205Z,63.57
2018-02-23T20:45:10.678Z,63.74
2018-02-23T20:47:39.040Z,63.62
2018-02-23T20:50:08.142Z,63.76
2018-02-23T20:52:36.511Z,64.02
2018-02-23T20:55:04.888Z,63.97
2018-02-23T20:57:33.231Z,63.82
2018-02-23T21:00:01.637Z,63.69
2018-02-23T21:02:29.985Z,63.81
2018-02-23T21:04:58.363Z,63.67
2018-02-23T21:07:26.713Z,63.69
2018-02-23T21:09:55.094Z,63.92
2018-02-23T21:12:23.439Z,63.92
2018-02-23T21:14:51.839Z,63.98
2018-02-23T21:17:20.175Z,63.98
2018-02-23T21:19:49.278Z,63.82
2018-02-23T21:22:17.740Z,63.71
2018-02-23T21:24:46.888Z,63.62
2018-02-23T21:27:15.268Z,63.75
2018-02-23T21:29:43.956Z,64.11
2018-02-23T21:32:12.332Z,64.35
2018-02-23T21:34:40.670Z,64.65
2018-02-23T21:37:09.773Z,64.67
2018-02-23T21:39:38.145Z,65.12
2018-02-23T21:42:07.247Z,65.38
2018-02-23T21:44:47.917Z,65.86
2018-02-23T21:47:17.093Z,65.95
2018-02-23T21:49:45.464Z,66.03
2018-02-23T21:52:14.611Z,66.12
2018-02-23T21:54:42.972Z,66.94
2018-02-23T21:57:11.300Z,67.32
2018-02-23T21:59:39.687Z,67.54
2018-02-23T22:02:08.850Z,67.52
2018-02-23T22:04:37.233Z,66.99
2018-02-23T22:07:05.606Z,66.79
2018-02-23T22:09:33.977Z,66.72
2018-02-23T22:12:02.329Z,66.81
2018-02-23T22:14:30.711Z,67.00
2018-02-23T22:16:59.071Z,67.27
2018-02-23T22:19:29.071Z,67.68
2018-02-23T22:21:58.252Z,68.23
2018-02-23T22:24:26.603Z,68.76
2018-02-23T22:26:55.018Z,69.19
2018-02-23T22:29:28.855Z,69.35
2018-02-23T22:31:57.182Z,68.75
2018-02-23T22:34:25.583Z,68.72
2018-02-23T22:36:55.203Z,68.79
2018-02-23T22:39:23.770Z,68.91
2018-02-23T22:41:52.218Z,69.06
2018-02-23T22:44:20.607Z,69.25
2018-02-23T22:46:48.995Z,69.40
2018-02-23T22:49:17.319Z,69.58
2018-02-23T22:51:46.491Z,69.79
2018-02-23T22:54:15.649Z,69.85
2018-02-23T22:56:44.657Z,70.01
2018-02-23T22:59:13.052Z,70.12
2018-02-23T23:01:41.951Z,70.10
2018-02-23T23:04:10.407Z,69.70
2018-02-23T23:06:38.790Z,69.65
2018-02-23T23:09:07.965Z,69.44
2018-02-23T23:11:36.488Z,69.22
2018-02-23T23:14:04.993Z,68.96
2018-02-23T23:16:34.235Z,69.12
2018-02-23T23:19:02.594Z,69.29
2018-02-23T23:21:31.278Z,69.56
2018-02-23T23:23:59.671Z,69.92
2018-02-23T23:26:28.009Z,69.99
2018-02-23T23:28:56.408Z,70.28
2018-02-23T23:31:24.775Z,70.49
2018-02-23T23:33:53.110Z,71.28
2018-02-23T23:36:21.581Z,71.14
2018-02-23T23:38:49.968Z,71.12
2018-02-23T23:41:18.346Z,71.25
2018-02-23T23:43:47.459Z,71.52
2018-02-23T23:46:16.597Z,71.54
2018-02-23T23:48:45.689Z,72.01
2018-02-23T23:51:14.106Z,72.31
2018-02-23T23:53:42.478Z,72.55
2018-02-23T23:56:10.905Z,72.79
2018-02-23T23:58:39.242Z,73.03
